Time;durP1;ratioP1;P1;durP2;ratioP2;P2;SDS_P1;SDS_P2;PMS_P1;PMS_P2;Temp;Humidity;BMP_temperature;BMP_pressure;BME280_temperature;BME280_humidity;BME280_pressure;Samples;Min_cycle;Max_cycle;Signal;HPM_P1;HPM_P2
2022/12/18 00:02:10;;;;;;;11.90;8.63;;;;;;;;;;5113117;28;20028;-78
2022/12/18 00:04:36;;;;;;;13.07;8.30;;;;;;;;;;5113465;28;20040;-78
2022/12/18 00:07:01;;;;;;;11.95;8.38;;;;;;;;;;5114925;28;20024;-78
2022/12/18 00:09:26;;;;;;;11.73;8.32;;;;;;;;;;5114412;28;20039;-78
2022/12/18 00:11:52;;;;;;;15.02;8.38;;;;;;;;;;5114704;28;20399;-78
2022/12/18 00:14:17;;;;;;;10.77;8.07;;;;;;;;;;5114504;28;20023;-78
2022/12/18 00:16:44;;;;;;;12.20;8.35;;;;;;;;;;5112993;28;20493;-78
2022/12/18 00:19:10;;;;;;;9.85;8.32;;;;;;;;;;5114094;27;20047;-78
2022/12/18 00:21:35;;;;;;;12.57;9.18;;;;;;;;;;5112840;28;20036;-79
2022/12/18 00:24:01;;;;;;;11.45;8.63;;;;;;;;;;5114137;28;20034;-80
2022/12/18 00:26:31;;;;;;;11.82;8.45;;;;;;;;;;5111834;28;20335;-77
2022/12/18 00:29:06;;;;;;;12.20;8.40;;;;;;;;;;5113267;28;20035;-77
2022/12/18 00:31:32;;;;;;;11.48;8.20;;;;;;;;;;5095552;28;20062;-77
2022/12/18 00:33:58;;;;;;;12.35;8.57;;;;;;;;;;5113675;28;20059;-78
2022/12/18 00:36:26;;;;;;;12.15;8.82;;;;;;;;;;5113150;28;20366;-80
2022/12/18 00:38:54;;;;;;;12.15;8.68;;;;;;;;;;5112860;28;20049;-79
2022/12/18 00:44:04;;;;;;;11.07;8.15;;;;;;;;;;5112909;28;20061;-79
2022/12/18 00:46:30;;;;;;;13.73;9.23;;;;;;;;;;5112443;28;20038;-79
2022/12/18 00:48:55;;;;;;;13.15;9.27;;;;;;;;;;5112789;28;20522;-79
2022/12/18 00:51:20;;;;;;;12.43;8.85;;;;;;;;;;5113612;28;20031;-80
2022/12/18 00:53:46;;;;;;;12.15;8.85;;;;;;;;;;5112347;28;20031;-79
2022/12/18 00:56:11;;;;;;;12.80;8.32;;;;;;;;;;5113689;28;20027;-80
2022/12/18 00:58:36;;;;;;;10.68;8.15;;;;;;;;;;5113841;28;20448;-80
2022/12/18 01:01:04;;;;;;;11.25;8.50;;;;;;;;;;5112677;28;20035;-79
2022/12/18 01:03:30;;;;;;;12.02;8.60;;;;;;;;;;5112236;28;20020;-80
2022/12/18 01:05:56;;;;;;;14.48;8.80;;;;;;;;;;5112837;28;20429;-80
2022/12/18 01:08:21;;;;;;;12.52;8.43;;;;;;;;;;5095131;28;20039;-79
2022/12/18 01:10:46;;;;;;;13.23;8.35;;;;;;;;;;5113832;28;20069;-79
2022/12/18 01:13:12;;;;;;;11.00;8.55;;;;;;;;;;5113887;28;20031;-79
2022/12/18 01:15:37;;;;;;;12.25;8.25;;;;;;;;;;5113459;28;20201;-79
2022/12/18 01:18:02;;;;;;;12.63;8.45;;;;;;;;;;5112169;28;20164;-79
2022/12/18 01:20:28;;;;;;;13.15;8.85;;;;;;;;;;5112220;28;20027;-79
2022/12/18 01:22:53;;;;;;;11.75;9.10;;;;;;;;;;5112089;28;20019;-78
2022/12/18 01:25:18;;;;;;;11.95;9.10;;;;;;;;;;5112397;28;20521;-78
2022/12/18 01:27:44;;;;;;;12.90;8.95;;;;;;;;;;5112355;28;20024;-78
2022/12/18 01:30:10;;;;;;;13.25;8.95;;;;;;;;;;5112134;28;20035;-78
2022/12/18 01:32:35;;;;;;;12.23;9.05;;;;;;;;;;5112845;28;20047;-78
2022/12/18 01:35:01;;;;;;;12.35;8.95;;;;;;;;;;5111790;28;20046;-78
2022/12/18 01:37:26;;;;;;;12.48;8.80;;;;;;;;;;5115821;28;20090;-78
2022/12/18 01:39:54;;;;;;;12.57;8.95;;;;;;;;;;5116194;28;20038;-78
2022/12/18 01:42:20;;;;;;;13.75;8.65;;;;;;;;;;5117666;28;20016;-78
2022/12/18 01:44:57;;;;;;;14.20;9.13;;;;;;;;;;5115865;28;20443;-78
2022/12/18 01:47:26;;;;;;;13.18;9.32;;;;;;;;;;5116262;28;20545;-79
2022/12/18 01:49:52;;;;;;;12.75;8.55;;;;;;;;;;5115673;28;20038;-78
2022/12/18 01:52:18;;;;;;;13.05;9.48;;;;;;;;;;5117123;28;20071;-78
2022/12/18 01:54:44;;;;;;;13.43;9.07;;;;;;;;;;5115877;28;20032;-78
2022/12/18 01:57:10;;;;;;;12.82;9.02;;;;;;;;;;5098836;28;20046;-79
2022/12/18 01:59:36;;;;;;;13.40;9.63;;;;;;;;;;5115776;28;20054;-79
2022/12/18 02:02:02;;;;;;;15.63;10.00;;;;;;;;;;5115532;28;20028;-78
2022/12/18 02:04:28;;;;;;;14.30;9.40;;;;;;;;;;5097843;28;20031;-79
2022/12/18 02:07:07;;;;;;;12.68;9.35;;;;;;;;;;5115648;28;20028;-78
2022/12/18 02:09:49;;;;;;;15.32;9.45;;;;;;;;;;5098262;28;20070;-79
2022/12/18 02:12:23;;;;;;;12.98;9.38;;;;;;;;;;5115812;28;20032;-78
2022/12/18 02:15:13;;;;;;;13.55;9.32;;;;;;;;;;5098496;28;20032;-79
2022/12/18 02:17:39;;;;;;;12.55;9.15;;;;;;;;;;5115572;28;20020;-78
2022/12/18 02:20:27;;;;;;;13.52;9.07;;;;;;;;;;5115044;28;20489;-79
2022/12/18 02:23:34;;;;;;;14.98;9.60;;;;;;;;;;5105240;28;20039;-79
2022/12/18 02:26:22;;;;;;;14.77;9.57;;;;;;;;;;5033984;28;20464;-79
2022/12/18 02:29:10;;;;;;;14.57;9.13;;;;;;;;;;5025472;28;20033;-78
2022/12/18 02:31:41;;;;;;;25.15;8.40;;;;;;;;;;5016893;28;20048;-79
2022/12/18 02:34:07;;;;;;;13.32;9.70;;;;;;;;;;5000369;28;20041;-78
2022/12/18 02:36:33;;;;;;;13.23;9.20;;;;;;;;;;5017152;28;20065;-78
2022/12/18 02:38:59;;;;;;;14.05;8.82;;;;;;;;;;5017072;28;20492;-79
2022/12/18 02:41:25;;;;;;;11.85;8.70;;;;;;;;;;5000556;28;20128;-79
2022/12/18 02:44:01;;;;;;;12.40;9.02;;;;;;;;;;5033271;28;20179;-79
2022/12/18 02:46:35;;;;;;;13.50;8.90;;;;;;;;;;5000473;28;20037;-79
2022/12/18 02:49:14;;;;;;;13.70;9.70;;;;;;;;;;4999263;28;20075;-79
2022/12/18 02:52:12;;;;;;;13.77;9.18;;;;;;;;;;5016381;28;20071;-78
2022/12/18 02:55:08;;;;;;;13.73;8.82;;;;;;;;;;5025094;28;20619;-79
2022/12/18 02:57:45;;;;;;;13.90;9.40;;;;;;;;;;5016473;28;20033;-79
2022/12/18 03:00:16;;;;;;;10.60;8.20;;;;;;;;;;5085362;28;20038;-79
2022/12/18 03:02:48;;;;;;;11.10;8.38;;;;;;;;;;5114642;28;20024;-79
2022/12/18 03:05:17;;;;;;;12.82;8.23;;;;;;;;;;5114875;28;20110;-79
2022/12/18 03:07:55;;;;;;;12.20;8.32;;;;;;;;;;5115766;28;20105;-79
2022/12/18 03:10:25;;;;;;;13.38;9.07;;;;;;;;;;5114445;28;20035;-79
2022/12/18 03:12:54;;;;;;;12.35;8.30;;;;;;;;;;5114253;28;20076;-78
2022/12/18 03:15:24;;;;;;;12.60;8.32;;;;;;;;;;5114144;28;20084;-79
2022/12/18 03:17:56;;;;;;;11.73;8.45;;;;;;;;;;5097355;28;20122;-79
2022/12/18 03:20:23;;;;;;;12.65;8.93;;;;;;;;;;5114080;28;20404;-79
2022/12/18 03:22:53;;;;;;;12.57;8.60;;;;;;;;;;5114528;28;20522;-79
2022/12/18 03:25:19;;;;;;;13.15;8.35;;;;;;;;;;5113999;28;20156;-79
2022/12/18 03:27:49;;;;;;;13.90;9.13;;;;;;;;;;5114154;28;20098;-79
2022/12/18 03:30:16;;;;;;;12.70;8.88;;;;;;;;;;5096979;28;20373;-79
2022/12/18 03:33:00;;;;;;;11.90;8.40;;;;;;;;;;5113506;28;20055;-78
2022/12/18 03:35:30;;;;;;;11.98;8.43;;;;;;;;;;5114860;28;20023;-78
2022/12/18 03:37:56;;;;;;;10.88;7.97;;;;;;;;;;5113715;28;20102;-79
2022/12/18 03:40:24;;;;;;;12.65;8.10;;;;;;;;;;5115203;28;20537;-78
2022/12/18 03:42:52;;;;;;;14.23;8.63;;;;;;;;;;5113574;28;20093;-79
2022/12/18 03:45:37;;;;;;;12.35;8.98;;;;;;;;;;5096420;28;20058;-78
2022/12/18 03:48:21;;;;;;;11.68;8.38;;;;;;;;;;5096430;28;20023;-79
2022/12/18 03:50:56;;;;;;;12.85;8.23;;;;;;;;;;5114628;28;20050;-77
2022/12/18 03:53:25;;;;;;;11.38;8.25;;;;;;;;;;5113307;28;20051;-78
2022/12/18 03:55:51;;;;;;;11.98;7.90;;;;;;;;;;5114577;28;20027;-78
2022/12/18 03:58:20;;;;;;;12.05;7.78;;;;;;;;;;5096176;28;20050;-79
2022/12/18 04:00:47;;;;;;;11.02;7.68;;;;;;;;;;5113306;28;20030;-78
2022/12/18 04:03:13;;;;;;;10.02;8.02;;;;;;;;;;5113348;28;20019;-78
2022/12/18 04:05:40;;;;;;;10.98;7.93;;;;;;;;;;5113694;28;20072;-78
2022/12/18 04:08:05;;;;;;;19.58;8.38;;;;;;;;;;5113046;28;20497;-78
2022/12/18 04:10:31;;;;;;;18.38;7.45;;;;;;;;;;5113781;28;20047;-78
2022/12/18 04:12:57;;;;;;;10.73;8.10;;;;;;;;;;5114162;28;20031;-79
2022/12/18 04:15:23;;;;;;;10.18;7.78;;;;;;;;;;5113043;28;20501;-78
2022/12/18 04:17:49;;;;;;;11.63;7.43;;;;;;;;;;5113428;28;20063;-78
2022/12/18 04:20:14;;;;;;;11.02;7.88;;;;;;;;;;5112768;28;20031;-78
2022/12/18 04:22:40;;;;;;;10.77;8.20;;;;;;;;;;5114355;28;20457;-78
2022/12/18 04:25:05;;;;;;;10.13;7.57;;;;;;;;;;5112942;28;20504;-78
2022/12/18 04:27:31;;;;;;;11.85;7.55;;;;;;;;;;5113831;28;20104;-79
2022/12/18 04:29:56;;;;;;;11.18;7.55;;;;;;;;;;5095678;28;20084;-78
2022/12/18 04:32:22;;;;;;;10.77;7.40;;;;;;;;;;5113638;28;20486;-79
2022/12/18 04:34:47;;;;;;;10.63;7.50;;;;;;;;;;5112572;28;20023;-79
2022/12/18 04:37:12;;;;;;;11.15;7.57;;;;;;;;;;5113747;28;20474;-79
2022/12/18 04:39:38;;;;;;;11.98;7.50;;;;;;;;;;5113968;28;20069;-79
2022/12/18 04:42:03;;;;;;;9.85;7.25;;;;;;;;;;5113676;28;20023;-78
2022/12/18 04:44:28;;;;;;;10.20;7.18;;;;;;;;;;5113759;28;20399;-78
2022/12/18 04:46:54;;;;;;;9.95;6.80;;;;;;;;;;5114165;28;20036;-78
2022/12/18 04:49:19;;;;;;;9.23;6.88;;;;;;;;;;5114248;28;20115;-79
2022/12/18 04:51:44;;;;;;;10.18;7.25;;;;;;;;;;5114065;27;20036;-78
2022/12/18 04:54:10;;;;;;;8.93;6.80;;;;;;;;;;5095335;28;20024;-78
2022/12/18 04:56:35;;;;;;;9.85;6.80;;;;;;;;;;5112333;28;20506;-78
2022/12/18 04:59:01;;;;;;;9.20;7.10;;;;;;;;;;5112282;28;20035;-80
2022/12/18 05:01:26;;;;;;;10.00;7.13;;;;;;;;;;5112019;28;20101;-79
2022/12/18 05:03:52;;;;;;;9.63;7.07;;;;;;;;;;5112233;28;20027;-79
2022/12/18 05:06:18;;;;;;;9.30;6.85;;;;;;;;;;5112371;28;20121;-79
2022/12/18 05:08:44;;;;;;;10.23;7.03;;;;;;;;;;5113211;28;20374;-79
2022/12/18 05:11:12;;;;;;;9.10;6.55;;;;;;;;;;5112171;28;20027;-79
2022/12/18 05:13:37;;;;;;;8.98;6.70;;;;;;;;;;5117339;28;20057;-79
2022/12/18 05:16:03;;;;;;;9.40;6.97;;;;;;;;;;5115952;28;20095;-78
2022/12/18 05:18:29;;;;;;;8.75;6.82;;;;;;;;;;5117488;28;20347;-78
2022/12/18 05:20:54;;;;;;;10.68;6.70;;;;;;;;;;5117064;28;20077;-78
2022/12/18 05:23:21;;;;;;;8.82;5.95;;;;;;;;;;5115885;28;20032;-78
2022/12/18 05:25:51;;;;;;;8.82;6.72;;;;;;;;;;5116018;28;20035;-78
2022/12/18 05:28:16;;;;;;;9.68;6.10;;;;;;;;;;5117597;28;20035;-78
2022/12/18 05:30:41;;;;;;;10.38;6.60;;;;;;;;;;5115762;28;20031;-78
2022/12/18 05:33:07;;;;;;;9.18;6.07;;;;;;;;;;5115585;28;20462;-78
2022/12/18 05:35:32;;;;;;;9.20;5.93;;;;;;;;;;5115725;28;20052;-78
2022/12/18 05:37:57;;;;;;;9.15;6.05;;;;;;;;;;5115590;28;20110;-78
2022/12/18 05:40:23;;;;;;;7.55;5.85;;;;;;;;;;5116248;28;20427;-78
2022/12/18 05:42:48;;;;;;;9.43;5.50;;;;;;;;;;5115585;28;20042;-78
2022/12/18 05:45:13;;;;;;;7.30;5.40;;;;;;;;;;5115627;28;20111;-78
2022/12/18 05:47:39;;;;;;;8.18;5.70;;;;;;;;;;5098381;28;20027;-78
2022/12/18 05:50:05;;;;;;;8.02;5.70;;;;;;;;;;5115823;28;20473;-78
2022/12/18 05:52:30;;;;;;;7.30;5.47;;;;;;;;;;5116567;28;20038;-78
2022/12/18 05:54:56;;;;;;;7.63;5.78;;;;;;;;;;5115170;28;20370;-79
2022/12/18 05:57:21;;;;;;;8.40;5.30;;;;;;;;;;5115581;28;20067;-79
2022/12/18 05:59:46;;;;;;;7.15;5.68;;;;;;;;;;5116962;28;20104;-79
2022/12/18 06:02:12;;;;;;;7.60;5.60;;;;;;;;;;5116571;28;20024;-79
2022/12/18 06:04:37;;;;;;;7.75;5.22;;;;;;;;;;5115502;28;20111;-79
2022/12/18 06:07:02;;;;;;;7.20;5.20;;;;;;;;;;5115734;28;20404;-78
2022/12/18 06:09:29;;;;;;;6.25;4.47;;;;;;;;;;5115441;28;20024;-78
2022/12/18 06:11:54;;;;;;;9.60;5.38;;;;;;;;;;5115476;28;20374;-78
2022/12/18 06:14:19;;;;;;;6.32;4.70;;;;;;;;;;5115166;28;20031;-78
2022/12/18 06:16:45;;;;;;;8.27;4.95;;;;;;;;;;5116347;28;20107;-77
2022/12/18 06:19:14;;;;;;;9.65;4.90;;;;;;;;;;5115203;28;20138;-78
2022/12/18 06:21:40;;;;;;;6.13;4.82;;;;;;;;;;5115298;28;20470;-78
2022/12/18 06:24:06;;;;;;;7.72;4.97;;;;;;;;;;5115077;28;20030;-78
2022/12/18 06:26:31;;;;;;;6.82;5.03;;;;;;;;;;5115455;28;20055;-77
2022/12/18 06:28:56;;;;;;;9.00;4.63;;;;;;;;;;5097696;28;20525;-78
2022/12/18 06:31:22;;;;;;;6.60;4.90;;;;;;;;;;5116379;28;20035;-78
2022/12/18 06:33:47;;;;;;;6.50;4.80;;;;;;;;;;5115483;28;20520;-77
2022/12/18 06:36:13;;;;;;;8.27;4.65;;;;;;;;;;5115906;28;20042;-78
2022/12/18 06:38:41;;;;;;;6.05;5.00;;;;;;;;;;5117860;28;20081;-77
2022/12/18 06:41:20;;;;;;;7.15;4.93;;;;;;;;;;5129068;28;20354;-77
2022/12/18 06:43:45;;;;;;;5.63;4.32;;;;;;;;;;5108579;28;20024;-77
2022/12/18 06:46:11;;;;;;;6.70;4.65;;;;;;;;;;5125700;28;20079;-78
2022/12/18 06:48:37;;;;;;;5.82;4.55;;;;;;;;;;5115690;28;20043;-77
2022/12/18 06:51:03;;;;;;;6.68;4.45;;;;;;;;;;5117782;28;20035;-77
2022/12/18 06:53:28;;;;;;;10.00;4.70;;;;;;;;;;5118042;28;20393;-77
2022/12/18 06:56:05;;;;;;;5.97;4.30;;;;;;;;;;5099633;28;20023;-77
2022/12/18 06:58:34;;;;;;;8.25;4.68;;;;;;;;;;5116205;28;20474;-77
2022/12/18 07:01:04;;;;;;;4.43;3.78;;;;;;;;;;5117148;28;20029;-77
2022/12/18 07:03:30;;;;;;;8.50;4.47;;;;;;;;;;5117398;28;20045;-77
2022/12/18 07:05:55;;;;;;;14.55;4.50;;;;;;;;;;5116063;28;20084;-77
2022/12/18 07:08:21;;;;;;;5.07;4.03;;;;;;;;;;5117204;27;20031;-77
2022/12/18 07:10:46;;;;;;;6.68;4.32;;;;;;;;;;5115063;28;20039;-78
2022/12/18 07:13:11;;;;;;;6.25;4.30;;;;;;;;;;5122443;28;20386;-78
2022/12/18 07:15:37;;;;;;;6.75;4.22;;;;;;;;;;5102196;28;20036;-78
2022/12/18 07:18:03;;;;;;;9.90;5.47;;;;;;;;;;5116510;28;20038;-77
2022/12/18 07:20:31;;;;;;;6.45;4.35;;;;;;;;;;5117883;28;20077;-78
2022/12/18 07:22:56;;;;;;;6.70;4.30;;;;;;;;;;5118307;28;20024;-78
2022/12/18 07:25:21;;;;;;;4.97;3.85;;;;;;;;;;5100889;28;20032;-78
2022/12/18 07:27:49;;;;;;;6.13;4.28;;;;;;;;;;5119149;28;20085;-78
2022/12/18 07:30:14;;;;;;;8.18;4.32;;;;;;;;;;5118114;28;20031;-78
2022/12/18 07:32:40;;;;;;;10.07;4.90;;;;;;;;;;5104769;28;20059;-78
2022/12/18 07:35:06;;;;;;;9.70;4.57;;;;;;;;;;5121284;28;20462;-79
2022/12/18 07:37:31;;;;;;;6.30;4.28;;;;;;;;;;5116997;28;20035;-79
2022/12/18 07:40:02;;;;;;;5.97;4.15;;;;;;;;;;5116047;28;20028;-78
2022/12/18 07:42:31;;;;;;;8.65;4.32;;;;;;;;;;5116931;28;20073;-78
2022/12/18 07:45:01;;;;;;;5.07;3.65;;;;;;;;;;5097634;28;20030;-78
2022/12/18 07:47:28;;;;;;;6.75;3.60;;;;;;;;;;5097240;28;20099;-79
2022/12/18 07:49:53;;;;;;;5.90;3.70;;;;;;;;;;5117390;28;20023;-79
2022/12/18 07:52:19;;;;;;;5.35;3.78;;;;;;;;;;5117636;28;20028;-79
2022/12/18 07:54:44;;;;;;;11.02;4.20;;;;;;;;;;5101461;28;20023;-78
2022/12/18 07:57:10;;;;;;;5.15;3.80;;;;;;;;;;5117076;28;20053;-78
2022/12/18 07:59:35;;;;;;;4.85;3.53;;;;;;;;;;5117552;28;20034;-78
2022/12/18 08:02:00;;;;;;;6.35;4.13;;;;;;;;;;5125253;28;20027;-79
2022/12/18 08:04:26;;;;;;;6.22;4.05;;;;;;;;;;5097663;28;20398;-80
2022/12/18 08:06:52;;;;;;;4.50;3.55;;;;;;;;;;5116683;28;20047;-79
2022/12/18 08:09:17;;;;;;;8.48;3.88;;;;;;;;;;5119153;28;20053;-79
2022/12/18 08:11:42;;;;;;;5.05;3.70;;;;;;;;;;5117897;28;20027;-79
2022/12/18 08:14:10;;;;;;;5.65;3.78;;;;;;;;;;5116664;28;20035;-79
2022/12/18 08:16:36;;;;;;;7.32;3.80;;;;;;;;;;5097629;28;20031;-78
2022/12/18 08:19:01;;;;;;;7.57;4.20;;;;;;;;;;5113553;28;20348;-78
2022/12/18 08:21:29;;;;;;;11.50;4.18;;;;;;;;;;5114072;28;20039;-79
2022/12/18 08:23:57;;;;;;;6.72;4.32;;;;;;;;;;5114048;28;20069;-79
2022/12/18 08:26:23;;;;;;;19.38;5.47;;;;;;;;;;5115211;28;20026;-78
2022/12/18 08:28:53;;;;;;;17.80;5.40;;;;;;;;;;5096207;28;20111;-77
2022/12/18 08:31:19;;;;;;;11.57;4.60;;;;;;;;;;5096088;28;20486;-78
2022/12/18 08:33:45;;;;;;;15.40;4.78;;;;;;;;;;5095220;28;20072;-78
2022/12/18 08:36:10;;;;;;;11.07;4.40;;;;;;;;;;5095716;28;20027;-78
2022/12/18 08:38:36;;;;;;;12.70;4.70;;;;;;;;;;5112323;28;20493;-78
2022/12/18 08:41:04;;;;;;;12.35;4.40;;;;;;;;;;5095357;28;20034;-78
2022/12/18 08:46:16;;;;;;;10.43;4.32;;;;;;;;;;5112051;28;20092;-78
2022/12/18 08:48:42;;;;;;;10.45;4.50;;;;;;;;;;5112266;28;20077;-80
2022/12/18 08:51:09;;;;;;;10.68;4.55;;;;;;;;;;5112824;28;20458;-76
2022/12/18 08:53:35;;;;;;;11.40;4.68;;;;;;;;;;5112195;28;20024;-76
2022/12/18 08:56:00;;;;;;;7.85;4.32;;;;;;;;;;5095314;28;20046;-78
2022/12/18 08:58:25;;;;;;;11.75;4.13;;;;;;;;;;5113461;28;20130;-76
2022/12/18 09:00:51;;;;;;;9.57;4.05;;;;;;;;;;5095710;28;20035;-78
2022/12/18 09:03:18;;;;;;;6.03;3.83;;;;;;;;;;5112805;28;20080;-77
2022/12/18 09:05:43;;;;;;;20.02;4.20;;;;;;;;;;5112369;28;20462;-78
2022/12/18 09:08:09;;;;;;;7.85;3.90;;;;;;;;;;5094977;28;20027;-79
2022/12/18 09:10:41;;;;;;;13.07;4.22;;;;;;;;;;5112256;28;20024;-80
2022/12/18 09:13:07;;;;;;;12.15;4.78;;;;;;;;;;5113010;28;20065;-78
2022/12/18 09:15:32;;;;;;;15.88;4.20;;;;;;;;;;5113631;28;20039;-76
2022/12/18 09:17:57;;;;;;;12.05;4.53;;;;;;;;;;5111915;28;20024;-79
2022/12/18 09:20:23;;;;;;;20.02;4.95;;;;;;;;;;5111922;28;20078;-79
2022/12/18 09:22:48;;;;;;;10.73;3.97;;;;;;;;;;5112596;28;20080;-78
2022/12/18 09:25:13;;;;;;;9.00;4.38;;;;;;;;;;5112326;28;20034;-79
2022/12/18 09:27:39;;;;;;;13.65;4.88;;;;;;;;;;5113620;28;20466;-79
2022/12/18 09:30:05;;;;;;;10.95;4.72;;;;;;;;;;5112595;28;20137;-81
2022/12/18 09:32:30;;;;;;;9.10;4.50;;;;;;;;;;5113042;28;20180;-80
2022/12/18 09:34:56;;;;;;;16.20;4.95;;;;;;;;;;5112580;28;20069;-78
2022/12/18 09:37:21;;;;;;;16.70;5.40;;;;;;;;;;5105524;28;20474;-79
2022/12/18 09:39:46;;;;;;;12.95;4.90;;;;;;;;;;5094062;28;20107;-78
2022/12/18 09:42:20;;;;;;;9.32;4.75;;;;;;;;;;5110686;28;20028;-75
2022/12/18 09:44:48;;;;;;;;;;;;;;;;;;5114724;28;20051;-78
2022/12/18 09:47:23;;;;;;;12.13;4.40;;;;;;;;;;5111633;28;19912;-78
2022/12/18 09:49:58;;;;;;;12.95;4.07;;;;;;;;;;5094492;28;20110;-77
2022/12/18 09:52:27;;;;;;;8.85;4.45;;;;;;;;;;5110999;28;20055;-79
2022/12/18 09:55:10;;;;;;;9.77;4.47;;;;;;;;;;5094973;28;20028;-78
2022/12/18 09:57:39;;;;;;;9.98;4.50;;;;;;;;;;5075106;28;20409;-77
2022/12/18 10:00:18;;;;;;;8.05;4.32;;;;;;;;;;5094653;28;20363;-78
2022/12/18 10:02:44;;;;;;;13.82;4.20;;;;;;;;;;5077542;28;20016;-79
2022/12/18 10:05:31;;;;;;;6.47;3.78;;;;;;;;;;5094732;28;20032;-77
2022/12/18 10:08:08;;;;;;;10.07;4.30;;;;;;;;;;5094453;28;20024;-76
2022/12/18 10:10:47;;;;;;;6.97;3.85;;;;;;;;;;5097791;28;20102;-75
2022/12/18 10:13:28;;;;;;;10.60;4.03;;;;;;;;;;5114228;28;20016;-75
2022/12/18 10:16:10;;;;;;;8.13;4.35;;;;;;;;;;5115395;28;20466;-76
2022/12/18 10:19:00;;;;;;;8.90;3.45;;;;;;;;;;5115336;28;20493;-76
2022/12/18 10:21:49;;;;;;;8.88;3.42;;;;;;;;;;5116741;28;20038;-76
2022/12/18 10:24:18;;;;;;;8.48;3.53;;;;;;;;;;5114583;28;20035;-76
2022/12/18 10:26:44;;;;;;;5.35;3.42;;;;;;;;;;5114607;28;20032;-76
2022/12/18 10:29:14;;;;;;;5.95;3.25;;;;;;;;;;5093888;28;20028;-76
2022/12/18 10:31:39;;;;;;;7.57;3.50;;;;;;;;;;5092451;28;20072;-77
2022/12/18 10:34:09;;;;;;;11.68;4.07;;;;;;;;;;5093751;28;20131;-79
2022/12/18 10:36:35;;;;;;;11.95;3.90;;;;;;;;;;5111243;28;20032;-78
2022/12/18 10:39:16;;;;;;;7.13;3.20;;;;;;;;;;5114519;28;20198;-77
2022/12/18 10:41:41;;;;;;;10.57;3.88;;;;;;;;;;5113867;28;20070;-78
2022/12/18 10:44:12;;;;;;;5.90;3.65;;;;;;;;;;5096964;28;20116;-78
2022/12/18 10:46:38;;;;;;;5.95;3.63;;;;;;;;;;5114587;28;20137;-77
2022/12/18 10:49:04;;;;;;;7.80;3.50;;;;;;;;;;5115310;28;20118;-77
2022/12/18 10:51:33;;;;;;;7.00;3.55;;;;;;;;;;5114150;28;20027;-75
2022/12/18 10:54:04;;;;;;;7.00;3.28;;;;;;;;;;5097235;28;20023;-77
2022/12/18 10:56:31;;;;;;;5.38;3.45;;;;;;;;;;5114102;28;20138;-77
2022/12/18 10:59:05;;;;;;;5.38;3.50;;;;;;;;;;5096812;28;20023;-76
2022/12/18 11:01:45;;;;;;;8.27;3.67;;;;;;;;;;5113926;28;20023;-77
2022/12/18 11:04:17;;;;;;;6.93;3.30;;;;;;;;;;5115100;28;20019;-75
2022/12/18 11:06:57;;;;;;;7.82;3.40;;;;;;;;;;5096600;28;20104;-76
2022/12/18 11:09:24;;;;;;;5.63;3.00;;;;;;;;;;5113056;28;20206;-77
2022/12/18 11:11:54;;;;;;;5.00;3.05;;;;;;;;;;5113633;28;20109;-77
2022/12/18 11:14:23;;;;;;;5.53;3.38;;;;;;;;;;5113893;28;20464;-76
2022/12/18 11:16:49;;;;;;;4.93;3.30;;;;;;;;;;5115647;28;20028;-76
2022/12/18 11:19:29;;;;;;;5.80;3.42;;;;;;;;;;5113864;28;20028;-76
2022/12/18 11:21:55;;;;;;;5.53;3.20;;;;;;;;;;5096592;28;20040;-75
2022/12/18 11:24:28;;;;;;;5.10;3.38;;;;;;;;;;5096585;28;20434;-75
2022/12/18 11:26:54;;;;;;;4.82;3.28;;;;;;;;;;5114489;28;20023;-74
2022/12/18 11:29:36;;;;;;;4.03;3.20;;;;;;;;;;5114704;28;20178;-75
2022/12/18 11:32:20;;;;;;;4.60;3.13;;;;;;;;;;5093424;28;20032;-75
2022/12/18 11:34:49;;;;;;;6.30;2.90;;;;;;;;;;5092336;28;20091;-78
2022/12/18 11:37:19;;;;;;;4.35;3.40;;;;;;;;;;5092328;28;20038;-75
2022/12/18 11:40:01;;;;;;;4.85;3.30;;;;;;;;;;5092423;28;20023;-75
2022/12/18 11:42:41;;;;;;;4.78;3.20;;;;;;;;;;5092634;28;20023;-74
2022/12/18 11:45:13;;;;;;;8.55;3.70;;;;;;;;;;5092710;28;20020;-75
2022/12/18 11:47:44;;;;;;;5.82;4.00;;;;;;;;;;5094515;28;20024;-74
2022/12/18 11:50:19;;;;;;;4.95;3.42;;;;;;;;;;5094276;28;20085;-75
2022/12/18 11:52:44;;;;;;;4.15;3.50;;;;;;;;;;5092524;28;20027;-74
2022/12/18 11:55:15;;;;;;;6.13;3.33;;;;;;;;;;5092635;28;20032;-74
2022/12/18 11:58:09;;;;;;;4.50;3.58;;;;;;;;;;5092658;28;20055;-74
2022/12/18 12:00:37;;;;;;;8.50;3.33;;;;;;;;;;5094168;28;20016;-76
2022/12/18 12:03:21;;;;;;;5.85;3.85;;;;;;;;;;5092485;28;20154;-77
2022/12/18 12:06:14;;;;;;;6.03;4.22;;;;;;;;;;5093141;28;20522;-75
2022/12/18 12:08:56;;;;;;;5.50;3.80;;;;;;;;;;5092609;28;20024;-76
2022/12/18 12:11:54;;;;;;;5.72;3.92;;;;;;;;;;5092793;28;20028;-76
2022/12/18 12:14:57;;;;;;;5.70;4.13;;;;;;;;;;5093742;28;20530;-76
2022/12/18 12:17:50;;;;;;;6.00;4.28;;;;;;;;;;5093814;28;20107;-76
2022/12/18 12:20:36;;;;;;;9.55;4.25;;;;;;;;;;5091847;28;20093;-77
2022/12/18 12:23:15;;;;;;;6.32;4.03;;;;;;;;;;5108497;28;20032;-76
2022/12/18 12:25:53;;;;;;;7.05;3.78;;;;;;;;;;5092271;28;20397;-77
2022/12/18 12:28:57;;;;;;;4.65;3.88;;;;;;;;;;5108867;28;20504;-76
2022/12/18 12:31:40;;;;;;;6.68;4.25;;;;;;;;;;5109337;28;20106;-76
2022/12/18 12:34:35;;;;;;;5.50;4.20;;;;;;;;;;5113438;28;20085;-77
2022/12/18 12:37:09;;;;;;;8.43;4.10;;;;;;;;;;5082420;28;20039;-76
2022/12/18 12:39:40;;;;;;;6.15;4.10;;;;;;;;;;5113668;28;20031;-77
2022/12/18 12:44:58;;;;;;;5.35;4.03;;;;;;;;;;5112264;28;20039;-77
2022/12/18 12:47:27;;;;;;;4.25;3.28;;;;;;;;;;5095107;28;20024;-77
2022/12/18 12:49:54;;;;;;;5.55;4.05;;;;;;;;;;5112313;28;20023;-77
2022/12/18 12:52:41;;;;;;;6.15;3.80;;;;;;;;;;5111566;28;20500;-77
2022/12/18 12:55:14;;;;;;;7.15;4.30;;;;;;;;;;5094704;28;20031;-76
2022/12/18 12:57:43;;;;;;;5.90;4.03;;;;;;;;;;5112022;28;20031;-77
2022/12/18 13:00:13;;;;;;;4.38;3.50;;;;;;;;;;5111717;28;20168;-77
2022/12/18 13:02:57;;;;;;;5.90;3.67;;;;;;;;;;5111704;28;20059;-77
2022/12/18 13:05:25;;;;;;;7.15;4.05;;;;;;;;;;5111758;28;20098;-77
2022/12/18 13:07:54;;;;;;;5.28;3.90;;;;;;;;;;5111527;28;20219;-78
2022/12/18 13:10:20;;;;;;;7.30;3.50;;;;;;;;;;5111397;28;20035;-77
2022/12/18 13:13:03;;;;;;;6.93;3.88;;;;;;;;;;5112928;28;20019;-77
2022/12/18 13:15:46;;;;;;;4.43;3.50;;;;;;;;;;5112155;28;20074;-74
2022/12/18 13:18:20;;;;;;;5.22;3.92;;;;;;;;;;5094692;28;20027;-74
2022/12/18 13:20:58;;;;;;;18.85;3.80;;;;;;;;;;5094674;28;20036;-75
2022/12/18 13:23:23;;;;;;;5.22;3.80;;;;;;;;;;5112718;28;20027;-77
2022/12/18 13:25:49;;;;;;;6.40;3.40;;;;;;;;;;5113626;28;20015;-78
2022/12/18 13:28:33;;;;;;;6.10;3.90;;;;;;;;;;5111599;28;20059;-78
2022/12/18 13:30:59;;;;;;;8.70;4.40;;;;;;;;;;5099638;28;20028;-76
2022/12/18 13:33:25;;;;;;;6.95;3.92;;;;;;;;;;5076429;28;20530;-75
2022/12/18 13:35:53;;;;;;;5.93;3.80;;;;;;;;;;5096248;28;20102;-78
2022/12/18 13:38:39;;;;;;;9.57;4.82;;;;;;;;;;5095248;28;20026;-77
2022/12/18 13:41:23;;;;;;;6.20;3.90;;;;;;;;;;5095711;28;20109;-78
2022/12/18 13:43:49;;;;;;;5.10;3.88;;;;;;;;;;5082848;28;20024;-77
2022/12/18 13:46:28;;;;;;;6.57;3.95;;;;;;;;;;5095238;28;20031;-77
2022/12/18 13:49:04;;;;;;;4.30;3.63;;;;;;;;;;5103822;28;20020;-77
2022/12/18 13:51:31;;;;;;;6.72;4.43;;;;;;;;;;5098106;28;20035;-75
2022/12/18 13:54:02;;;;;;;8.35;4.20;;;;;;;;;;5114883;28;20019;-77
2022/12/18 13:56:33;;;;;;;5.63;3.88;;;;;;;;;;5115310;28;20015;-77
2022/12/18 13:59:08;;;;;;;5.78;3.80;;;;;;;;;;5114828;28;20469;-76
2022/12/18 14:01:33;;;;;;;4.97;3.95;;;;;;;;;;5116048;28;20043;-76
2022/12/18 14:04:16;;;;;;;6.03;4.05;;;;;;;;;;5116178;28;20106;-77
2022/12/18 14:06:42;;;;;;;5.47;4.43;;;;;;;;;;5114597;28;20488;-77
2022/12/18 14:09:13;;;;;;;5.13;3.85;;;;;;;;;;5114865;28;20106;-76
2022/12/18 14:11:38;;;;;;;7.13;4.10;;;;;;;;;;5098926;28;20108;-76
2022/12/18 14:14:07;;;;;;;5.30;3.53;;;;;;;;;;5115927;28;20482;-76
2022/12/18 14:16:32;;;;;;;6.20;4.50;;;;;;;;;;5098204;28;20051;-76
2022/12/18 14:18:58;;;;;;;4.68;3.78;;;;;;;;;;5114748;28;20435;-77
2022/12/18 14:21:29;;;;;;;6.53;4.07;;;;;;;;;;5116340;28;20027;-78
2022/12/18 14:24:20;;;;;;;9.10;4.07;;;;;;;;;;5115156;28;20047;-77
2022/12/18 14:26:49;;;;;;;9.82;4.32;;;;;;;;;;5097492;28;20038;-77
2022/12/18 14:29:29;;;;;;;6.93;4.30;;;;;;;;;;5096657;28;20035;-77
2022/12/18 14:32:19;;;;;;;10.52;4.10;;;;;;;;;;5097005;28;20032;-77
2022/12/18 14:34:52;;;;;;;6.40;3.72;;;;;;;;;;5106436;28;20051;-78
2022/12/18 14:37:25;;;;;;;7.63;4.25;;;;;;;;;;5097975;28;20169;-78
2022/12/18 14:39:55;;;;;;;4.68;3.80;;;;;;;;;;5118789;28;20024;-79
2022/12/18 14:42:20;;;;;;;5.82;3.60;;;;;;;;;;5099064;28;20038;-77
2022/12/18 14:44:46;;;;;;;5.18;3.97;;;;;;;;;;5115195;27;20020;-77
2022/12/18 14:47:37;;;;;;;9.13;4.07;;;;;;;;;;5116580;28;20030;-79
2022/12/18 14:50:03;;;;;;;4.10;3.25;;;;;;;;;;5088123;28;20539;-78
2022/12/18 14:52:31;;;;;;;5.55;3.92;;;;;;;;;;5114216;28;20469;-76
2022/12/18 14:54:56;;;;;;;4.75;4.07;;;;;;;;;;5115490;28;20385;-77
2022/12/18 14:57:26;;;;;;;11.70;3.60;;;;;;;;;;5114461;28;20027;-77
2022/12/18 14:59:51;;;;;;;6.07;3.92;;;;;;;;;;5097298;28;20432;-77
2022/12/18 15:02:25;;;;;;;12.60;3.85;;;;;;;;;;5114304;28;20020;-77
2022/12/18 15:05:02;;;;;;;4.72;3.70;;;;;;;;;;5113749;28;20031;-76